Time;durP1;ratioP1;P1;durP2;ratioP2;P2;SDS_P1;SDS_P2;PMS_P1;PMS_P2;Temp;Humidity;BMP_temperature;BMP_pressure;BME280_temperature;BME280_humidity;BME280_pressure;Samples;Min_cycle;Max_cycle;Signal;HPM_P1;HPM_P2
2023/08/28 00:00:48;0.00;0.00;0.62;0.00;0.00;0.62;1.90;1.20;;;29.00;26.30;;;;;;2260035;61;20946;-50
2023/08/28 00:03:33;0.00;0.00;0.62;0.00;0.00;0.62;2.03;1.13;;;29.00;26.40;;;;;;2259724;61;20373;-53
2023/08/28 00:06:19;0.00;0.00;0.62;0.00;0.00;0.62;1.50;1.00;;;29.00;26.30;;;;;;2259572;61;20464;-51
2023/08/28 00:09:04;0.00;0.00;0.62;0.00;0.00;0.62;1.93;1.20;;;29.00;26.30;;;;;;2260080;61;20826;-55
2023/08/28 00:11:48;0.00;0.00;0.62;0.00;0.00;0.62;1.50;1.00;;;29.00;26.30;;;;;;2259545;61;20890;-50
2023/08/28 00:14:33;0.00;0.00;0.62;0.00;0.00;0.62;1.90;1.10;;;29.00;26.30;;;;;;2259611;61;20448;-46
2023/08/28 00:17:19;0.00;0.00;0.62;0.00;0.00;0.62;1.80;1.00;;;29.00;26.30;;;;;;2259979;61;20392;-47
2023/08/28 00:20:07;0.00;0.00;0.62;0.00;0.00;0.62;1.73;1.10;;;29.00;26.40;;;;;;2259447;61;20430;-53
2023/08/28 00:22:52;0.00;0.00;0.62;0.00;0.00;0.62;1.80;1.10;;;29.00;26.30;;;;;;2259921;61;20396;-54
2023/08/28 00:25:36;0.00;0.00;0.62;0.00;0.00;0.62;2.33;1.10;;;29.00;26.40;;;;;;2259870;61;20420;-53
2023/08/28 00:28:21;0.00;0.00;0.62;0.00;0.00;0.62;1.50;0.80;;;29.00;26.40;;;;;;2259401;61;20416;-49
2023/08/28 00:31:05;0.00;0.00;0.62;0.00;0.00;0.62;2.57;0.90;;;28.90;26.30;;;;;;2260095;61;20404;-49
2023/08/28 00:33:51;0.00;0.00;0.62;0.00;0.00;0.62;2.10;1.20;;;29.00;26.40;;;;;;2260088;61;20917;-51
2023/08/28 00:36:36;0.00;0.00;0.62;0.00;0.00;0.62;1.60;1.00;;;29.00;26.40;;;;;;2260473;61;20854;-52
2023/08/28 00:39:20;0.00;0.00;0.62;0.00;0.00;0.62;3.93;1.30;;;29.00;26.40;;;;;;2260176;61;20513;-54
2023/08/28 00:42:05;0.00;0.00;0.62;0.00;0.00;0.62;2.33;1.07;;;29.00;26.40;;;;;;2260415;61;20419;-50
2023/08/28 00:44:49;0.00;0.00;0.62;0.00;0.00;0.62;1.50;0.83;;;28.90;26.30;;;;;;2259743;61;20375;-52
2023/08/28 00:47:35;0.00;0.00;0.62;0.00;0.00;0.62;1.60;0.90;;;28.90;26.30;;;;;;2260076;61;20459;-50
2023/08/28 00:50:22;0.00;0.00;0.62;0.00;0.00;0.62;1.40;1.00;;;28.90;26.30;;;;;;2260376;61;20824;-64
2023/08/28 00:53:06;0.00;0.00;0.62;0.00;0.00;0.62;1.60;1.00;;;28.90;26.30;;;;;;2259908;61;20784;-50
2023/08/28 00:55:53;0.00;0.00;0.62;0.00;0.00;0.62;1.60;1.10;;;28.90;26.30;;;;;;2260164;61;20446;-51
2023/08/28 00:58:38;0.00;0.00;0.62;0.00;0.00;0.62;2.20;1.27;;;28.90;26.30;;;;;;2260102;61;20959;-47
2023/08/28 01:01:23;0.00;0.00;0.62;0.00;0.00;0.62;1.67;1.00;;;28.90;26.40;;;;;;2260674;61;20365;-50
2023/08/28 01:04:07;0.00;0.00;0.62;0.00;0.00;0.62;1.40;0.80;;;28.90;26.30;;;;;;2259468;61;20364;-51
2023/08/28 01:07:01;0.00;0.00;0.62;0.00;0.00;0.62;1.73;1.00;;;28.90;26.30;;;;;;2260494;61;20913;-49
2023/08/28 01:10:01;0.00;0.00;0.62;0.00;0.00;0.62;1.70;0.97;;;28.90;26.30;;;;;;2260791;61;20365;-49
2023/08/28 01:12:55;0.00;0.00;0.62;0.00;0.00;0.62;1.63;0.90;;;28.90;26.30;;;;;;2260339;61;20360;-54
2023/08/28 01:15:40;0.00;0.00;0.62;0.00;0.00;0.62;2.00;1.10;;;28.90;26.30;;;;;;2260241;61;20472;-53
2023/08/28 01:18:26;0.00;0.00;0.62;0.00;0.00;0.62;1.50;1.03;;;28.90;26.30;;;;;;2259973;61;20381;-50
2023/08/28 01:21:12;0.00;0.00;0.62;0.00;0.00;0.62;1.73;1.00;;;28.90;26.30;;;;;;2260486;61;20839;-52
2023/08/28 01:24:01;0.00;0.00;0.62;0.00;0.00;0.62;2.17;1.33;;;28.90;26.30;;;;;;2259652;61;20365;-50
2023/08/28 01:26:48;0.00;0.00;0.62;0.00;0.00;0.62;1.70;0.87;;;28.90;26.30;;;;;;2261801;61;20453;-50
2023/08/28 01:29:34;0.00;0.00;0.62;0.00;0.00;0.62;1.40;0.90;;;28.90;26.40;;;;;;2497211;53;20368;-56
2023/08/28 01:32:19;0.00;0.00;0.62;0.00;0.00;0.62;1.40;0.80;;;28.90;26.30;;;;;;2257677;61;21082;-50
2023/08/28 01:35:08;0.00;0.00;0.62;0.00;0.00;0.62;1.90;1.30;;;28.90;26.40;;;;;;2263260;61;20392;-53
2023/08/28 01:38:19;0.00;0.00;0.62;0.00;0.00;0.62;2.27;1.10;;;28.90;26.30;;;;;;2264245;61;20400;-53
2023/08/28 01:41:08;0.00;0.00;0.62;0.00;0.00;0.62;1.60;0.90;;;28.80;26.30;;;;;;2264475;61;20364;-47
2023/08/28 01:44:00;0.00;0.00;0.62;0.00;0.00;0.62;1.50;1.00;;;28.90;26.30;;;;;;2263898;61;20414;-53
2023/08/28 01:46:48;0.00;0.00;0.62;0.00;0.00;0.62;1.60;1.00;;;28.90;26.40;;;;;;2264072;61;20388;-48
2023/08/28 01:49:33;0.00;0.00;0.62;0.00;0.00;0.62;2.67;1.00;;;28.90;26.40;;;;;;2263791;61;20383;-48
2023/08/28 01:52:18;0.00;0.00;0.62;0.00;0.00;0.62;1.90;1.10;;;28.80;26.30;;;;;;2264440;61;20375;-54
2023/08/28 01:55:03;0.00;0.00;0.62;0.00;0.00;0.62;1.50;1.00;;;28.90;26.40;;;;;;2264087;61;20380;-47
2023/08/28 01:57:48;0.00;0.00;0.62;0.00;0.00;0.62;1.50;0.80;;;28.80;26.30;;;;;;2264109;61;20810;-50
2023/08/28 02:00:34;0.00;0.00;0.62;0.00;0.00;0.62;1.87;1.20;;;28.80;26.30;;;;;;2264224;61;20778;-53
2023/08/28 02:03:18;0.00;0.00;0.62;0.00;0.00;0.62;1.67;0.97;;;28.80;26.30;;;;;;2262562;61;20930;-52
2023/08/28 02:06:03;0.00;0.00;0.62;0.00;0.00;0.62;1.60;1.00;;;28.80;26.30;;;;;;2263596;61;20659;-51
2023/08/28 02:08:47;0.00;0.00;0.62;0.00;0.00;0.62;1.60;1.00;;;28.80;26.30;;;;;;2263463;61;20391;-52
2023/08/28 02:11:32;0.00;0.00;0.62;0.00;0.00;0.62;1.50;1.03;;;28.80;26.30;;;;;;2262942;61;20364;-47
2023/08/28 02:14:17;0.00;0.00;0.62;0.00;0.00;0.62;1.67;1.00;;;28.80;26.30;;;;;;2263133;61;20451;-50
2023/08/28 02:17:03;0.00;0.00;0.62;0.00;0.00;0.62;2.17;1.03;;;28.80;26.30;;;;;;2264163;61;20388;-49
2023/08/28 02:19:48;0.00;0.00;0.62;0.00;0.00;0.62;2.00;1.17;;;28.80;26.30;;;;;;2263416;61;20400;-53
2023/08/28 02:22:33;0.00;0.00;0.62;0.00;0.00;0.62;1.50;1.00;;;28.80;26.30;;;;;;2264181;61;20582;-49
2023/08/28 02:25:20;0.00;0.00;0.62;0.00;0.00;0.62;1.50;0.87;;;28.80;26.30;;;;;;2263759;61;20395;-54
2023/08/28 02:28:05;0.00;0.00;0.62;0.00;0.00;0.62;1.87;1.27;;;28.80;26.80;;;;;;2264072;61;20430;-51
2023/08/28 02:30:50;0.00;0.00;0.62;0.00;0.00;0.62;1.53;1.00;;;28.80;26.30;;;;;;2263936;61;20363;-52
2023/08/28 02:33:36;0.00;0.00;0.62;0.00;0.00;0.62;1.40;0.90;;;28.80;26.30;;;;;;2263642;61;20391;-56
2023/08/28 02:36:21;0.00;0.00;0.62;0.00;0.00;0.62;1.93;1.00;;;28.80;26.30;;;;;;2264221;61;20383;-54
2023/08/28 02:39:06;0.00;0.00;0.62;0.00;0.00;0.62;2.70;1.30;;;28.80;26.30;;;;;;2264327;61;20368;-53
2023/08/28 02:41:50;0.00;0.00;0.62;0.00;0.00;0.62;1.50;1.10;;;28.80;26.30;;;;;;2264103;61;20368;-50
2023/08/28 02:44:35;0.00;0.00;0.62;0.00;0.00;0.62;2.20;1.13;;;28.80;26.30;;;;;;2264132;61;20497;-51
2023/08/28 02:47:19;0.00;0.00;0.62;0.00;0.00;0.62;2.17;1.10;;;28.80;26.30;;;;;;2264271;61;20410;-53
2023/08/28 02:50:06;0.00;0.00;0.62;0.00;0.00;0.62;1.83;1.03;;;28.70;26.20;;;;;;2264284;61;20502;-52
2023/08/28 02:52:51;0.00;0.00;0.62;0.00;0.00;0.62;1.40;1.00;;;28.70;26.20;;;;;;2263823;61;20426;-53
2023/08/28 02:55:39;0.00;0.00;0.62;0.00;0.00;0.62;1.90;1.00;;;28.70;26.20;;;;;;2263386;61;20383;-46
2023/08/28 02:58:24;0.00;0.00;0.62;0.00;0.00;0.62;1.60;0.90;;;28.70;26.20;;;;;;2263924;61;20355;-50
2023/08/28 03:01:09;0.00;0.00;0.62;0.00;0.00;0.62;2.00;1.00;;;28.70;26.20;;;;;;2263903;61;20411;-53
2023/08/28 03:03:53;0.00;0.00;0.62;0.00;0.00;0.62;2.77;1.03;;;28.70;26.20;;;;;;2262435;61;20404;-52
2023/08/28 03:06:39;0.00;0.00;0.62;0.00;0.00;0.62;1.57;1.03;;;28.70;26.20;;;;;;2645689;45;20427;-50
2023/08/28 03:09:25;0.00;0.00;0.62;0.00;0.00;0.62;1.70;1.00;;;28.70;26.20;;;;;;2259679;61;20495;-52
2023/08/28 03:12:10;0.00;0.00;0.62;0.00;0.00;0.62;1.53;0.80;;;28.70;26.20;;;;;;2259655;61;20415;-52
2023/08/28 03:14:56;0.00;0.00;0.62;0.00;0.00;0.62;1.40;0.90;;;28.70;26.20;;;;;;2259363;61;20472;-54
2023/08/28 03:17:40;0.00;0.00;0.62;0.00;0.00;0.62;1.87;0.97;;;28.70;26.20;;;;;;2260016;61;20337;-48
2023/08/28 03:20:25;0.00;0.00;0.62;0.00;0.00;0.62;1.90;1.10;;;28.70;26.20;;;;;;2260386;61;20426;-52
2023/08/28 03:23:11;0.00;0.00;0.62;0.00;0.00;0.62;1.90;1.00;;;28.70;26.20;;;;;;2259427;61;20783;-57
2023/08/28 03:25:55;0.00;0.00;0.62;0.00;0.00;0.62;1.70;1.10;;;28.60;26.20;;;;;;2259750;61;20385;-52
2023/08/28 03:28:40;0.00;0.00;0.62;0.00;0.00;0.62;1.90;0.93;;;28.70;26.20;;;;;;2259999;61;20431;-49
2023/08/28 03:31:26;0.00;0.00;0.62;0.00;0.00;0.62;1.80;1.17;;;28.70;26.30;;;;;;2259861;61;20886;-54
2023/08/28 03:34:11;0.00;0.00;0.62;0.00;0.00;0.62;1.63;1.00;;;28.70;26.30;;;;;;2259084;61;20866;-55
2023/08/28 03:36:56;0.00;0.00;0.62;0.00;0.00;0.62;1.83;1.20;;;28.70;26.30;;;;;;2259858;61;20468;-50
2023/08/28 03:39:41;0.00;0.00;0.62;0.00;0.00;0.62;1.80;1.00;;;28.70;26.30;;;;;;2259833;61;20904;-50
2023/08/28 03:42:26;0.00;0.00;0.62;0.00;0.00;0.62;1.60;0.97;;;28.60;26.20;;;;;;2259662;61;20357;-48
2023/08/28 03:45:11;0.00;0.00;0.62;0.00;0.00;0.62;1.50;0.83;;;28.60;26.20;;;;;;2259105;61;20674;-51
2023/08/28 03:47:55;0.00;0.00;0.62;0.00;0.00;0.62;1.57;1.00;;;28.60;26.20;;;;;;2259200;61;20475;-49
2023/08/28 03:50:39;0.00;0.00;0.62;0.00;0.00;0.62;1.90;1.00;;;28.60;26.20;;;;;;2259722;61;20936;-52
2023/08/28 03:53:25;0.00;0.00;0.62;0.00;0.00;0.62;2.47;0.90;;;28.60;26.20;;;;;;2259149;61;20492;-52
2023/08/28 03:56:11;0.00;0.00;0.62;0.00;0.00;0.62;1.60;0.83;;;28.60;26.20;;;;;;2259364;61;20476;-51
2023/08/28 03:58:56;0.00;0.00;0.62;0.00;0.00;0.62;1.80;1.10;;;28.60;26.20;;;;;;2259756;61;20407;-52
2023/08/28 04:01:41;0.00;0.00;0.62;0.00;0.00;0.62;1.60;1.00;;;28.60;26.20;;;;;;2259983;61;20384;-56
2023/08/28 04:04:27;0.00;0.00;0.62;0.00;0.00;0.62;1.50;0.90;;;28.60;26.20;;;;;;2259700;61;20965;-52
2023/08/28 04:07:22;0.00;0.00;0.62;0.00;0.00;0.62;2.17;0.80;;;28.60;26.20;;;;;;2260228;61;20845;-59
2023/08/28 04:10:08;0.00;0.00;0.62;0.00;0.00;0.62;2.67;1.37;;;28.60;26.20;;;;;;2259947;61;20369;-53
2023/08/28 04:12:54;0.00;0.00;0.62;0.00;0.00;0.62;2.20;1.20;;;28.60;26.20;;;;;;2260401;61;20939;-50
2023/08/28 04:15:38;0.00;0.00;0.62;0.00;0.00;0.62;2.17;1.00;;;28.60;26.20;;;;;;2260426;61;20527;-50
2023/08/28 04:18:23;0.00;0.00;0.62;0.00;0.00;0.62;1.87;0.97;;;28.60;26.30;;;;;;2260285;61;20469;-51
2023/08/28 04:21:08;0.00;0.00;0.62;0.00;0.00;0.62;1.63;1.10;;;28.60;26.20;;;;;;2260817;61;20383;-55
2023/08/28 04:23:52;0.00;0.00;0.62;0.00;0.00;0.62;1.70;1.03;;;28.60;26.20;;;;;;2259602;61;20361;-57
2023/08/28 04:26:37;0.00;0.00;0.62;0.00;0.00;0.62;1.43;0.97;;;28.60;26.20;;;;;;2260848;61;20380;-61
2023/08/28 04:29:23;0.00;0.00;0.62;0.00;0.00;0.62;3.83;1.03;;;28.60;26.20;;;;;;2260277;61;20380;-51
2023/08/28 04:32:08;0.00;0.00;0.62;0.00;0.00;0.62;1.67;0.97;;;28.50;26.20;;;;;;2259875;61;20365;-52
2023/08/28 04:34:54;0.00;0.00;0.62;0.00;0.00;0.62;1.70;1.00;;;28.50;26.20;;;;;;2260004;61;20412;-58
2023/08/28 04:37:40;0.00;0.00;0.62;0.00;0.00;0.62;1.80;1.23;;;28.50;26.20;;;;;;2257666;61;20353;-55
2023/08/28 04:40:24;0.00;0.00;0.62;0.00;0.00;0.62;1.40;0.80;;;28.50;26.20;;;;;;2259887;61;20365;-50
2023/08/28 04:43:10;0.00;0.00;0.62;0.00;0.00;0.62;1.60;1.00;;;28.50;26.20;;;;;;2259833;61;20465;-51
2023/08/28 04:45:56;0.00;0.00;0.62;0.00;0.00;0.62;1.60;0.80;;;28.50;26.20;;;;;;2260042;61;20524;-51
2023/08/28 04:48:40;0.00;0.00;0.62;0.00;0.00;0.62;1.90;1.20;;;28.50;26.20;;;;;;2260796;61;20484;-54
2023/08/28 04:51:25;0.00;0.00;0.62;0.00;0.00;0.62;1.60;1.00;;;28.50;26.20;;;;;;2260680;61;20365;-54
2023/08/28 04:54:09;0.00;0.00;0.62;0.00;0.00;0.62;1.50;1.10;;;28.50;26.30;;;;;;2259248;61;20369;-48
2023/08/28 04:56:55;0.00;0.00;0.62;0.00;0.00;0.62;1.73;1.10;;;28.50;26.30;;;;;;2260310;61;20397;-52
2023/08/28 04:59:40;0.00;0.00;0.62;0.00;0.00;0.62;1.60;1.20;;;28.50;26.30;;;;;;2260220;61;20365;-52
2023/08/28 05:02:26;0.00;0.00;0.62;0.00;0.00;0.62;1.60;0.93;;;28.50;26.30;;;;;;2260195;61;20395;-49
2023/08/28 05:05:12;0.00;0.00;0.62;0.00;0.00;0.62;1.60;1.10;;;28.50;26.30;;;;;;2260390;61;20443;-53
2023/08/28 05:07:58;0.00;0.00;0.62;0.00;0.00;0.62;1.70;1.07;;;28.50;26.30;;;;;;2260330;61;20385;-50
2023/08/28 05:10:42;0.00;0.00;0.62;0.00;0.00;0.62;1.73;1.00;;;28.50;26.30;;;;;;2259964;61;20440;-52
2023/08/28 05:13:27;0.00;0.00;0.62;0.00;0.00;0.62;2.07;1.03;;;28.50;26.30;;;;;;2260127;61;20369;-49
2023/08/28 05:16:11;0.00;0.00;0.62;0.00;0.00;0.62;1.50;1.00;;;28.50;26.80;;;;;;2259481;61;20380;-53
2023/08/28 05:18:57;0.00;0.00;0.62;0.00;0.00;0.62;2.13;0.90;;;28.50;26.30;;;;;;2260222;61;20864;-46
2023/08/28 05:21:42;0.00;0.00;0.62;0.00;0.00;0.62;1.70;0.90;;;28.40;26.30;;;;;;2260507;61;20401;-54
2023/08/28 05:24:26;0.00;0.00;0.62;0.00;0.00;0.62;2.20;0.93;;;28.50;26.30;;;;;;2259540;61;20830;-49
2023/08/28 05:27:12;0.00;0.00;0.62;0.00;0.00;0.62;2.00;1.20;;;28.50;26.30;;;;;;2259889;61;20393;-51
2023/08/28 05:29:56;0.00;0.00;0.62;0.00;0.00;0.62;1.67;1.20;;;28.50;26.40;;;;;;2259844;61;20369;-48
2023/08/28 05:32:41;0.00;0.00;0.62;0.00;0.00;0.62;1.70;1.10;;;28.50;26.40;;;;;;2259722;61;20869;-48
2023/08/28 05:35:27;0.00;0.00;0.62;0.00;0.00;0.62;1.40;0.93;;;28.50;26.30;;;;;;2259467;61;20385;-50
2023/08/28 05:38:12;0.00;0.00;0.62;0.00;0.00;0.62;2.40;1.20;;;28.50;26.40;;;;;;2259196;61;20423;-49
2023/08/28 05:40:57;0.00;0.00;0.62;0.00;0.00;0.62;1.53;1.10;;;28.40;26.30;;;;;;2260121;61;20384;-52
2023/08/28 05:43:41;0.00;0.00;0.62;0.00;0.00;0.62;1.97;1.20;;;28.40;26.30;;;;;;2259660;61;20365;-49
2023/08/28 05:46:26;0.00;0.00;0.62;0.00;0.00;0.62;1.60;1.10;;;28.40;26.30;;;;;;2259492;61;20396;-50
2023/08/28 05:49:10;0.00;0.00;0.62;0.00;0.00;0.62;1.63;1.13;;;28.50;26.40;;;;;;2260060;61;20456;-52
2023/08/28 05:51:56;0.00;0.00;0.62;0.00;0.00;0.62;1.77;1.30;;;28.40;26.30;;;;;;2260054;61;20365;-53
2023/08/28 05:54:41;0.00;0.00;0.62;0.00;0.00;0.62;2.00;1.30;;;28.40;26.30;;;;;;2259665;61;20424;-49
2023/08/28 05:57:25;0.00;0.00;0.62;0.00;0.00;0.62;1.80;1.23;;;28.40;26.30;;;;;;2260027;61;20435;-50
2023/08/28 06:00:13;0.00;0.00;0.62;0.00;0.00;0.62;2.90;1.27;;;28.50;26.40;;;;;;2259713;61;20364;-56
2023/08/28 06:02:58;0.00;0.00;0.62;0.00;0.00;0.62;2.40;1.80;;;28.50;26.40;;;;;;2259900;61;20400;-53
2023/08/28 06:05:43;0.00;0.00;0.62;0.00;0.00;0.62;2.20;1.50;;;28.40;26.40;;;;;;2259541;61;20388;-51
2023/08/28 06:08:29;0.00;0.00;0.62;0.00;0.00;0.62;2.03;1.53;;;28.40;26.30;;;;;;2260193;61;20396;-51
2023/08/28 06:11:14;0.00;0.00;0.62;0.00;0.00;0.62;2.00;1.60;;;28.40;26.40;;;;;;2260080;61;20767;-50
2023/08/28 06:13:59;0.00;0.00;0.62;0.00;0.00;0.62;2.30;1.67;;;28.40;26.40;;;;;;2259741;61;20872;-49
2023/08/28 06:16:44;0.00;0.00;0.62;0.00;0.00;0.62;2.40;1.80;;;28.40;26.40;;;;;;2259973;61;20412;-52
2023/08/28 06:19:28;0.00;0.00;0.62;0.00;0.00;0.62;2.40;1.80;;;28.40;26.30;;;;;;2260246;61;20445;-47
2023/08/28 06:22:13;0.00;0.00;0.62;0.00;0.00;0.62;2.17;1.70;;;28.50;26.50;;;;;;2260397;61;20381;-54
2023/08/28 06:24:59;0.00;0.00;0.62;0.00;0.00;0.62;2.73;2.07;;;28.40;26.40;;;;;;2259422;61;20783;-54
2023/08/28 06:27:44;0.00;0.00;0.62;0.00;0.00;0.62;2.43;1.80;;;28.40;26.40;;;;;;2260334;61;20381;-54
2023/08/28 06:30:29;0.00;0.00;0.62;0.00;0.00;0.62;4.03;2.50;;;28.40;26.40;;;;;;2259768;61;20403;-49
2023/08/28 06:33:13;0.00;0.00;0.62;0.00;0.00;0.62;2.80;2.17;;;28.40;26.40;;;;;;2259558;61;20364;-49
2023/08/28 06:35:58;0.00;0.00;0.62;0.00;0.00;0.62;3.30;2.13;;;28.40;26.40;;;;;;2260503;61;20963;-46
2023/08/28 06:38:42;0.00;0.00;0.62;0.00;0.00;0.62;3.40;2.37;;;28.50;26.50;;;;;;2259941;61;20408;-52
2023/08/28 06:41:28;0.00;0.00;0.62;0.00;0.00;0.62;3.10;2.50;;;28.40;26.40;;;;;;2260437;61;20369;-50
2023/08/28 06:44:13;0.00;0.00;0.62;0.00;0.00;0.62;2.90;2.47;;;28.40;26.40;;;;;;2259861;61;20454;-51
2023/08/28 06:46:57;0.00;0.00;0.62;0.00;0.00;0.62;2.70;2.30;;;28.40;26.40;;;;;;2260116;61;20376;-54
2023/08/28 06:49:42;0.00;0.00;0.62;0.00;0.00;0.62;2.70;2.30;;;28.50;26.50;;;;;;2260517;61;20361;-51
2023/08/28 06:52:27;0.00;0.00;0.62;0.00;0.00;0.62;2.50;2.13;;;28.50;26.50;;;;;;2259811;61;20809;-52
2023/08/28 06:55:12;0.00;0.00;0.62;0.00;0.00;0.62;2.77;2.33;;;28.40;26.40;;;;;;2259928;61;20443;-46
2023/08/28 06:57:58;0.00;0.00;0.62;0.00;0.00;0.62;4.67;2.83;;;28.50;26.50;;;;;;2260369;61;20962;-53
2023/08/28 07:00:42;0.00;0.00;0.62;0.00;0.00;0.62;2.93;2.30;;;28.40;26.40;;;;;;2259424;61;20365;-60
2023/08/28 07:03:27;0.00;0.00;0.62;0.00;0.00;0.62;2.77;2.50;;;28.40;26.40;;;;;;2259610;61;20441;-48
2023/08/28 07:06:13;0.00;0.00;0.62;0.00;0.00;0.62;3.80;2.53;;;28.50;26.50;;;;;;2259849;61;20388;-50
2023/08/28 07:08:59;0.00;0.00;0.62;0.00;0.00;0.62;3.53;2.60;;;28.50;26.50;;;;;;2260026;61;20396;-49
2023/08/28 07:11:43;0.00;0.00;0.62;0.00;0.00;0.62;2.83;2.30;;;28.50;26.50;;;;;;2260194;61;20416;-55
2023/08/28 07:14:29;0.00;0.00;0.62;0.00;0.00;0.62;2.93;2.60;;;28.50;26.50;;;;;;2259458;61;20365;-48
2023/08/28 07:17:14;0.00;0.00;0.62;0.00;0.00;0.62;3.53;2.73;;;28.50;26.50;;;;;;2260348;61;20412;-48
2023/08/28 07:19:58;0.00;0.00;0.62;0.00;0.00;0.62;2.70;2.20;;;28.50;26.50;;;;;;2260059;61;20779;-51
2023/08/28 07:22:43;0.00;0.00;0.62;0.00;0.00;0.62;2.57;2.37;;;28.50;26.50;;;;;;2259719;61;20369;-47
2023/08/28 07:25:28;0.00;0.00;0.62;0.00;0.00;0.62;3.37;2.20;;;28.50;26.60;;;;;;2259946;61;20460;-51
2023/08/28 07:28:12;0.00;0.00;0.62;0.00;0.00;0.62;2.83;2.30;;;28.50;26.60;;;;;;2259780;61;20412;-56
2023/08/28 07:31:00;0.00;0.00;0.62;0.00;0.00;0.62;3.10;2.13;;;28.50;26.60;;;;;;2259987;61;20372;-49
2023/08/28 07:33:44;0.00;0.00;0.62;0.00;0.00;0.62;3.57;2.50;;;28.50;26.60;;;;;;2259761;61;20916;-49
2023/08/28 07:36:29;0.00;0.00;0.62;0.00;0.00;0.62;2.30;2.00;;;28.50;26.60;;;;;;2259511;61;20917;-48
2023/08/28 07:39:14;0.00;0.00;0.62;0.00;0.00;0.62;3.37;2.43;;;28.50;26.60;;;;;;2260104;61;20451;-50
2023/08/28 07:41:59;0.00;0.00;0.62;0.00;0.00;0.62;2.80;2.23;;;28.50;26.70;;;;;;2260053;61;20368;-50
2023/08/28 07:44:44;0.00;0.00;0.62;0.00;0.00;0.62;3.60;2.60;;;28.50;26.70;;;;;;2259350;61;20361;-55
2023/08/28 07:47:30;0.00;0.00;0.62;0.00;0.00;0.62;3.00;2.53;;;28.50;26.70;;;;;;2260247;61;20385;-54
2023/08/28 07:50:15;0.00;0.00;0.62;0.00;0.00;0.62;2.87;2.57;;;28.50;26.70;;;;;;2259549;61;20415;-52
2023/08/28 07:53:00;0.00;0.00;0.62;0.00;0.00;0.62;3.43;2.03;;;28.50;26.70;;;;;;2259362;61;20909;-50
2023/08/28 07:55:45;0.00;0.00;0.62;0.00;0.00;0.62;2.53;2.30;;;28.50;26.70;;;;;;2259338;61;20384;-47
2023/08/28 07:58:29;0.00;0.00;0.62;0.00;0.00;0.62;3.00;2.50;;;28.50;26.70;;;;;;2259841;61;20360;-50
2023/08/28 08:01:14;0.00;0.00;0.62;0.00;0.00;0.62;3.53;2.50;;;28.50;26.70;;;;;;2260097;61;20392;-48
2023/08/28 08:04:00;0.00;0.00;0.62;0.00;0.00;0.62;3.13;2.50;;;28.50;26.80;;;;;;2259916;61;20369;-52
2023/08/28 08:06:44;0.00;0.00;0.62;0.00;0.00;0.62;3.47;2.57;;;28.50;26.80;;;;;;2258895;61;20439;-51
2023/08/28 08:09:29;0.00;0.00;0.62;0.00;0.00;0.62;3.10;2.60;;;28.50;26.80;;;;;;2260088;61;20470;-49
2023/08/28 08:12:13;0.00;0.00;0.62;0.00;0.00;0.62;3.50;2.63;;;28.50;26.80;;;;;;2260156;61;20366;-54
2023/08/28 08:14:58;0.00;0.00;0.62;0.00;0.00;0.62;4.20;2.63;;;28.50;26.80;;;;;;2259459;61;20373;-52
2023/08/28 08:17:43;0.00;0.00;0.62;0.00;0.00;0.62;3.17;2.40;;;28.40;26.80;;;;;;2259820;61;20885;-53
2023/08/28 08:20:30;0.00;0.00;0.62;0.00;0.00;0.62;2.93;2.33;;;28.50;26.90;;;;;;2259547;61;20461;-55
2023/08/28 08:23:15;0.00;0.00;0.62;0.00;0.00;0.62;3.00;2.70;;;28.50;26.90;;;;;;2259703;61;20369;-50
2023/08/28 08:26:00;0.00;0.00;0.62;0.00;0.00;0.62;2.90;2.53;;;28.50;26.90;;;;;;2259644;61;20420;-50
2023/08/28 08:28:45;0.00;0.00;0.62;0.00;0.00;0.62;4.07;2.90;;;28.50;26.90;;;;;;2259648;61;20442;-52
2023/08/28 08:31:29;0.00;0.00;0.62;0.00;0.00;0.62;3.40;2.80;;;28.50;27.00;;;;;;2259573;61;20439;-51
2023/08/28 08:34:14;0.00;0.00;0.62;0.00;0.00;0.62;3.03;2.67;;;28.50;27.00;;;;;;2259949;61;20407;-54
2023/08/28 08:37:00;0.00;0.00;0.62;0.00;0.00;0.62;2.97;2.23;;;28.50;27.00;;;;;;2259564;61;20438;-49
2023/08/28 08:39:44;0.00;0.00;0.62;0.00;0.00;0.62;2.83;2.20;;;28.50;27.00;;;;;;2260104;61;20431;-50
2023/08/28 08:42:29;0.00;0.00;0.62;0.00;0.00;0.62;2.50;2.23;;;28.50;27.00;;;;;;2259255;61;20404;-53
2023/08/28 08:45:15;0.00;0.00;0.62;0.00;0.00;0.62;3.03;2.07;;;28.50;27.00;;;;;;2259091;61;20515;-50
2023/08/28 08:48:02;0.00;0.00;0.62;0.00;0.00;0.62;3.17;2.30;;;28.50;27.00;;;;;;2259897;61;20443;-52
2023/08/28 08:50:47;0.00;0.00;0.62;0.00;0.00;0.62;3.00;1.80;;;28.50;27.10;;;;;;2259508;61;20457;-45
2023/08/28 08:53:43;0.00;0.00;0.62;0.00;0.00;0.62;2.60;1.90;;;28.50;27.10;;;;;;2259937;61;20873;-52
2023/08/28 08:56:31;0.00;0.00;0.62;0.00;0.00;0.62;2.10;1.70;;;28.50;27.10;;;;;;2260513;61;20427;-50
2023/08/28 08:59:16;0.00;0.00;0.62;0.00;0.00;0.62;2.50;2.10;;;28.50;27.10;;;;;;2259983;61;20411;-48
2023/08/28 09:02:03;0.00;0.00;0.62;0.00;0.00;0.62;2.93;2.23;;;28.60;27.20;;;;;;2260385;61;21004;-54
2023/08/28 09:04:49;0.00;0.00;0.62;0.00;0.00;0.62;2.80;2.23;;;28.60;27.20;;;;;;2260000;61;20948;-54
2023/08/28 09:07:36;0.00;0.00;0.62;0.00;0.00;0.62;3.47;2.43;;;28.60;27.20;;;;;;2260715;61;20490;-48
2023/08/28 09:10:22;0.00;0.00;0.62;0.00;0.00;0.62;3.70;2.20;;;28.60;27.20;;;;;;2260649;61;20415;-50
2023/08/28 09:13:06;0.00;0.00;0.62;0.00;0.00;0.62;3.07;2.33;;;28.60;27.20;;;;;;2259733;61;20365;-51
2023/08/28 09:15:51;0.00;0.00;0.62;0.00;0.00;0.62;4.57;2.23;;;28.60;27.20;;;;;;2260621;61;20465;-52
2023/08/28 09:18:37;0.00;0.00;0.62;0.00;0.00;0.62;2.63;2.40;;;28.60;27.20;;;;;;2260372;61;20357;-51
2023/08/28 09:21:21;0.00;0.00;0.62;0.00;0.00;0.62;8.03;3.13;;;28.60;27.80;;;;;;2260347;61;20369;-52
2023/08/28 09:24:09;0.00;0.00;0.62;0.00;0.00;0.62;2.90;2.33;;;28.60;27.30;;;;;;2260442;61;20365;-49
2023/08/28 09:26:55;0.00;0.00;0.62;0.00;0.00;0.62;2.87;2.10;;;28.60;27.30;;;;;;2260221;61;20436;-46
2023/08/28 09:29:39;0.00;0.00;0.62;0.00;0.00;0.62;2.23;1.70;;;28.60;27.30;;;;;;2260360;61;20426;-47
2023/08/28 09:32:28;0.00;0.00;0.62;0.00;0.00;0.62;3.00;2.43;;;28.60;27.80;;;;;;2260603;61;20415;-49
2023/08/28 09:35:14;0.00;0.00;0.62;0.00;0.00;0.62;3.40;2.00;;;28.70;27.30;;;;;;2259740;61;20396;-51
2023/08/28 09:38:01;0.00;0.00;0.62;0.00;0.00;0.62;2.67;2.20;;;28.70;27.30;;;;;;2260591;61;20900;-53
2023/08/28 09:40:46;0.00;0.00;0.62;0.00;0.00;0.62;3.30;2.53;;;28.70;27.30;;;;;;2260412;61;20403;-52
2023/08/28 09:43:35;0.00;0.00;0.62;0.00;0.00;0.62;2.60;1.83;;;28.70;27.40;;;;;;2259694;61;20365;-48
2023/08/28 09:46:20;0.00;0.00;0.62;0.00;0.00;0.62;2.47;2.03;;;28.70;27.40;;;;;;2260446;61;21009;-52
2023/08/28 09:49:08;0.00;0.00;0.62;0.00;0.00;0.62;2.77;1.90;;;28.70;27.40;;;;;;2260369;61;20478;-54
2023/08/28 09:51:52;0.00;0.00;0.62;0.00;0.00;0.62;2.33;1.87;;;28.70;27.40;;;;;;2259826;61;20515;-47
2023/08/28 09:54:37;0.00;0.00;0.62;0.00;0.00;0.62;1.90;1.70;;;28.70;27.40;;;;;;2260185;61;20364;-51
2023/08/28 09:57:23;0.00;0.00;0.62;0.00;0.00;0.62;2.77;2.37;;;28.70;27.40;;;;;;2259997;61;20449;-48
2023/08/28 10:00:12;0.00;0.00;0.62;0.00;0.00;0.62;2.90;1.93;;;28.70;27.40;;;;;;2260744;61;20772;-51
2023/08/28 10:02:57;0.00;0.00;0.62;0.00;0.00;0.62;3.00;1.83;;;28.70;27.40;;;;;;2260087;61;20369;-55
2023/08/28 10:05:45;0.00;0.00;0.62;0.00;0.00;0.62;2.57;1.87;;;28.80;27.40;;;;;;2260174;61;20413;-50
2023/08/28 10:08:31;0.00;0.00;0.62;0.00;0.00;0.62;2.80;1.93;;;28.70;27.40;;;;;;2260202;61;20956;-55
2023/08/28 10:11:16;0.00;0.00;0.62;0.00;0.00;0.62;2.67;2.10;;;28.80;27.40;;;;;;2260361;61;20357;-53
2023/08/28 10:14:03;0.00;0.00;0.62;0.00;0.00;0.62;3.10;2.23;;;28.80;27.40;;;;;;2259783;61;20364;-51
2023/08/28 10:16:57;0.00;0.00;0.62;0.00;0.00;0.62;2.90;1.60;;;28.80;27.40;;;;;;2260062;61;20400;-49
2023/08/28 10:19:47;0.00;0.00;0.62;0.00;0.00;0.62;2.30;2.00;;;28.80;27.40;;;;;;2259481;61;20472;-50
2023/08/28 10:22:35;0.00;0.00;0.62;0.00;0.00;0.62;2.07;1.60;;;28.80;27.40;;;;;;2260363;61;20408;-52
2023/08/28 10:25:22;0.00;0.00;0.62;0.00;0.00;0.62;2.07;1.70;;;28.80;27.40;;;;;;2260039;61;20385;-49
2023/08/28 10:28:07;0.00;0.00;0.62;0.00;0.00;0.62;2.40;1.83;;;28.80;27.40;;;;;;2260138;61;20952;-48
2023/08/28 10:30:52;0.00;0.00;0.62;0.00;0.00;0.62;3.07;2.30;;;28.80;27.40;;;;;;2260315;61;20380;-49
2023/08/28 10:33:39;0.00;0.00;0.62;0.00;0.00;0.62;2.60;1.80;;;28.80;27.40;;;;;;2260039;61;20431;-56
2023/08/28 10:36:25;0.00;0.00;0.62;0.00;0.00;0.62;2.20;1.70;;;28.90;27.50;;;;;;2260344;61;20427;-52
2023/08/28 10:39:11;0.00;0.00;0.62;0.00;0.00;0.62;2.20;1.77;;;28.90;27.50;;;;;;2259970;61;20453;-51
2023/08/28 10:41:56;0.00;0.00;0.62;0.00;0.00;0.62;2.10;1.50;;;28.90;27.50;;;;;;2259875;61;20453;-54
2023/08/28 10:44:42;0.00;0.00;0.62;0.00;0.00;0.62;2.27;1.87;;;28.90;27.50;;;;;;2259627;61;20365;-53
2023/08/28 10:47:27;0.00;0.00;0.62;0.00;0.00;0.62;2.77;2.10;;;28.90;27.50;;;;;;2260293;61;20384;-52
2023/08/28 10:50:13;0.00;0.00;0.62;0.00;0.00;0.62;2.57;1.70;;;28.90;27.50;;;;;;2259722;61;20389;-51
2023/08/28 10:52:59;0.00;0.00;0.62;0.00;0.00;0.62;2.10;1.40;;;28.90;27.50;;;;;;2259892;61;20368;-49